Time;durP1;ratioP1;P1;durP2;ratioP2;P2;SDS_P1;SDS_P2;PMS_P1;PMS_P2;Temp;Humidity;BMP_temperature;BMP_pressure;BME280_temperature;BME280_humidity;BME280_pressure;Samples;Min_cycle;Max_cycle;Signal;HPM_P1;HPM_P2
2021/03/04 00:01:07;;;;;;;19.23;13.55;;;;;;;-2.84;78.56;100831.80;1686001;84;21133;-77
2021/03/04 00:03:35;;;;;;;17.85;10.72;;;;;;;-2.84;78.63;100827.48;1690524;84;22078;-77
2021/03/04 00:06:04;;;;;;;20.10;12.63;;;;;;;-2.83;78.65;100824.45;1678289;85;21237;-76
2021/03/04 00:08:32;;;;;;;15.20;9.08;;;;;;;-2.82;78.67;100818.41;1680206;84;21348;-77
2021/03/04 00:11:00;;;;;;;15.90;10.32;;;;;;;-2.84;78.73;100818.44;1702308;84;21520;-78
2021/03/04 00:13:27;;;;;;;13.68;8.60;;;;;;;-2.85;78.84;100814.59;1692348;84;21108;-77
2021/03/04 00:15:55;;;;;;;13.65;8.43;;;;;;;-2.87;78.96;100812.04;1684898;84;22511;-76
2021/03/04 00:18:23;;;;;;;13.60;8.78;;;;;;;-2.86;79.08;100809.02;1679156;84;21101;-76
2021/03/04 00:20:52;;;;;;;19.42;13.83;;;;;;;-2.87;79.16;100798.27;1693562;84;21097;-76
2021/03/04 00:23:20;;;;;;;18.65;13.05;;;;;;;-2.86;79.23;100798.23;1708815;83;21058;-76
2021/03/04 00:25:48;;;;;;;17.98;12.40;;;;;;;-2.85;79.29;100796.05;1715401;83;21164;-75
2021/03/04 00:28:16;;;;;;;15.10;10.25;;;;;;;-2.82;79.34;100791.27;1717057;82;22062;-75
2021/03/04 00:30:43;;;;;;;16.17;10.18;;;;;;;-2.82;79.39;100780.92;1695315;84;21100;-75
2021/03/04 00:33:11;;;;;;;16.05;10.65;;;;;;;-2.83;79.38;100774.05;1718339;82;21078;-75
2021/03/04 00:35:39;;;;;;;12.85;8.08;;;;;;;-2.84;79.38;100764.16;1721154;82;21062;-75
2021/03/04 00:38:07;;;;;;;13.30;8.60;;;;;;;-2.85;79.40;100757.73;1717640;82;21168;-75
2021/03/04 00:40:35;;;;;;;14.58;9.45;;;;;;;-2.89;79.44;100752.63;1693343;84;22135;-75
2021/03/04 00:43:04;;;;;;;13.53;9.15;;;;;;;-2.91;79.41;100749.19;1676178;84;21686;-75
2021/03/04 00:45:32;;;;;;;17.17;10.70;;;;;;;-2.94;79.44;100744.53;1672361;84;21078;-77
2021/03/04 00:48:02;;;;;;;16.87;11.28;;;;;;;-2.97;79.51;100737.69;1693603;84;21411;-77
2021/03/04 00:50:31;;;;;;;15.80;9.10;;;;;;;-2.99;79.58;100734.29;1681554;84;21217;-75
2021/03/04 00:52:59;;;;;;;14.00;9.70;;;;;;;-3.00;79.63;100726.09;1718275;81;22061;-76
2021/03/04 00:55:26;;;;;;;19.30;11.68;;;;;;;-2.98;79.68;100724.80;1706436;81;21129;-76
2021/03/04 00:57:54;;;;;;;15.65;10.58;;;;;;;-2.99;79.72;100718.78;1716156;82;21200;-76
2021/03/04 01:00:22;;;;;;;16.20;11.30;;;;;;;-2.99;79.77;100714.91;1723172;82;21086;-75
2021/03/04 01:02:50;;;;;;;21.57;14.28;;;;;;;-2.99;79.80;100709.73;1725600;82;21481;-75
2021/03/04 01:05:19;;;;;;;20.17;14.07;;;;;;;-3.00;79.88;100706.71;1708159;82;23081;-76
2021/03/04 01:07:46;;;;;;;20.17;12.45;;;;;;;-2.98;79.96;100705.42;1715587;82;21130;-76
2021/03/04 01:10:17;;;;;;;22.55;12.23;;;;;;;-2.99;80.06;100694.23;1714409;82;21177;-75
2021/03/04 01:12:45;;;;;;;20.10;12.70;;;;;;;-2.95;80.17;100697.59;1715797;82;21185;-75
2021/03/04 01:15:15;;;;;;;18.52;10.90;;;;;;;-2.92;80.23;100682.02;1709107;82;21073;-75
2021/03/04 01:17:43;;;;;;;20.27;13.08;;;;;;;-2.91;80.24;100679.41;1716276;82;22055;-75
2021/03/04 01:20:14;;;;;;;23.87;14.43;;;;;;;-2.90;80.29;100675.09;1733671;82;21394;-74
2021/03/04 01:22:42;;;;;;;20.65;12.15;;;;;;;-2.91;80.31;100670.36;1728068;82;21059;-74
2021/03/04 01:25:12;;;;;;;29.05;14.60;;;;;;;-2.91;80.36;100674.23;1720152;82;21190;-74
2021/03/04 01:27:40;;;;;;;28.83;15.18;;;;;;;-2.91;80.41;100660.46;1713506;82;21177;-76
2021/03/04 01:30:09;;;;;;;30.27;14.73;;;;;;;-2.92;80.44;100664.78;1723801;82;21912;-75
2021/03/04 01:32:38;;;;;;;26.90;13.28;;;;;;;-2.93;80.45;100656.63;1713297;82;21117;-75
2021/03/04 01:35:07;;;;;;;42.40;18.45;;;;;;;-2.94;80.47;100657.51;1712763;83;21118;-75
2021/03/04 01:37:36;;;;;;;51.18;21.87;;;;;;;-2.94;80.48;100662.67;1692914;83;21177;-76
2021/03/04 01:40:08;;;;;;;52.50;23.35;;;;;;;-2.94;80.45;100658.80;1721597;82;21358;-74
2021/03/04 01:42:36;;;;;;;50.23;21.10;;;;;;;-2.95;80.48;100645.47;1683169;82;22789;-74
2021/03/04 01:45:05;;;;;;;41.18;17.85;;;;;;;-2.96;80.49;100644.21;1710668;83;21584;-75
2021/03/04 01:47:36;;;;;;;35.03;16.55;;;;;;;-2.96;80.53;100641.63;1730897;82;21312;-75
2021/03/04 01:50:06;;;;;;;32.93;17.10;;;;;;;-2.95;80.53;100638.16;1724101;82;21097;-75
2021/03/04 01:52:33;;;;;;;30.05;15.53;;;;;;;-2.96;80.56;100637.31;1714442;83;21070;-76
2021/03/04 01:55:02;;;;;;;33.00;16.50;;;;;;;-2.96;80.56;100626.13;1681820;85;21769;-75
2021/03/04 01:57:30;;;;;;;31.77;16.55;;;;;;;-2.99;80.58;100621.88;1674162;84;21301;-75
2021/03/04 01:59:58;;;;;;;29.95;15.68;;;;;;;-3.00;80.54;100619.30;1710998;82;21136;-75
2021/03/04 02:02:26;;;;;;;25.37;14.03;;;;;;;-3.02;80.54;100618.04;1723412;82;21477;-74
2021/03/04 02:04:54;;;;;;;24.75;13.80;;;;;;;-3.03;80.59;100607.73;1714168;83;21095;-75
2021/03/04 02:08:03;;;;;;;26.52;14.15;;;;;;;-3.03;80.61;100612.91;1726406;82;22515;-74
2021/03/04 02:10:48;;;;;;;21.57;11.83;;;;;;;-3.04;80.59;100613.79;1711919;83;21091;-74
2021/03/04 02:13:31;;;;;;;27.20;14.20;;;;;;;-3.07;80.62;100616.00;1715099;83;21137;-73
2021/03/04 02:16:05;;;;;;;27.45;15.03;;;;;;;-3.09;80.60;100609.14;1727910;82;21141;-73
2021/03/04 02:18:40;;;;;;;26.40;13.50;;;;;;;-3.14;80.55;100602.79;1713388;82;21164;-73
2021/03/04 02:21:19;;;;;;;29.87;13.30;;;;;;;-3.18;80.53;100603.30;1712072;81;22065;-73
2021/03/04 02:24:10;;;;;;;17.77;10.32;;;;;;;-3.21;80.50;100601.20;1732021;81;21153;-73
2021/03/04 02:27:02;;;;;;;23.57;12.30;;;;;;;-3.24;80.51;100602.56;1744110;81;21157;-73
2021/03/04 02:29:39;;;;;;;22.30;13.90;;;;;;;-3.27;80.48;100593.58;1740557;82;21078;-73
2021/03/04 02:32:09;;;;;;;24.10;14.65;;;;;;;-3.30;80.48;100588.45;1725690;82;21150;-74
2021/03/04 02:34:47;;;;;;;18.12;11.25;;;;;;;-3.32;80.46;100586.35;1720832;82;21886;-74
2021/03/04 02:37:18;;;;;;;24.25;14.13;;;;;;;-3.35;80.48;100579.52;1701290;83;21185;-74
2021/03/04 02:39:49;;;;;;;22.10;13.43;;;;;;;-3.36;80.46;100574.39;1725475;82;21142;-74
2021/03/04 02:42:20;;;;;;;20.00;12.13;;;;;;;-3.37;80.47;100566.23;1668334;84;21137;-74
2021/03/04 02:44:50;;;;;;;17.35;11.05;;;;;;;-3.37;80.51;100568.81;1713662;82;21121;-75
2021/03/04 02:47:18;;;;;;;18.77;12.05;;;;;;;-3.37;80.54;100561.07;1719634;83;22054;-74
2021/03/04 02:49:46;;;;;;;13.48;8.10;;;;;;;-3.38;80.55;100549.86;1730005;82;21129;-74
2021/03/04 02:52:16;;;;;;;19.30;12.95;;;;;;;-3.37;80.53;100546.87;1665000;84;21098;-74
2021/03/04 02:54:44;;;;;;;19.60;12.75;;;;;;;-3.36;80.58;100543.40;1721029;82;21077;-74
2021/03/04 02:57:12;;;;;;;20.30;13.32;;;;;;;-3.36;80.60;100542.11;1718622;82;21081;-73
2021/03/04 02:59:41;;;;;;;20.68;12.23;;;;;;;-3.35;80.63;100536.06;1719496;83;21954;-73
2021/03/04 03:02:09;;;;;;;20.12;11.22;;;;;;;-3.34;80.65;100532.59;1722168;82;21173;-74
2021/03/04 03:04:38;;;;;;;25.85;14.90;;;;;;;-3.34;80.66;100536.02;1727504;82;21118;-74
2021/03/04 03:07:08;;;;;;;24.80;15.32;;;;;;;-3.34;80.67;100522.27;1677215;84;21245;-74
2021/03/04 03:09:39;;;;;;;27.62;15.48;;;;;;;-3.34;80.67;100521.81;1684741;85;21170;-73
2021/03/04 03:12:08;;;;;;;18.92;10.75;;;;;;;-3.33;80.66;100518.80;1658858;85;23308;-75
2021/03/04 03:14:36;;;;;;;21.80;12.28;;;;;;;-3.34;80.67;100520.53;1675600;84;21193;-73
2021/03/04 03:17:07;;;;;;;22.20;13.25;;;;;;;-3.35;80.67;100513.66;1700242;84;21576;-73
2021/03/04 03:19:37;;;;;;;15.65;10.20;;;;;;;-3.37;80.63;100506.84;1668416;85;21133;-73
2021/03/04 03:22:06;;;;;;;19.20;11.50;;;;;;;-3.39;80.67;100502.97;1683396;84;21172;-74
2021/03/04 03:24:34;;;;;;;17.70;12.33;;;;;;;-3.39;80.73;100498.25;1684573;84;22581;-74
2021/03/04 03:27:01;;;;;;;20.43;12.98;;;;;;;-3.38;80.79;100493.05;1694508;84;21170;-74
2021/03/04 03:29:29;;;;;;;24.67;14.55;;;;;;;-3.35;80.85;100488.28;1676088;84;21087;-75
2021/03/04 03:31:57;;;;;;;19.95;13.58;;;;;;;-3.34;80.85;100482.23;1678045;84;21145;-74
2021/03/04 03:34:25;;;;;;;22.77;12.55;;;;;;;-3.33;80.86;100476.18;1691211;84;21192;-75
2021/03/04 03:36:54;;;;;;;19.95;11.65;;;;;;;-3.33;80.83;100473.59;1685576;84;21839;-74
2021/03/04 03:39:22;;;;;;;21.85;13.28;;;;;;;-3.33;80.80;100476.18;1678454;84;21136;-75
2021/03/04 03:41:49;;;;;;;17.73;12.33;;;;;;;-3.34;80.79;100475.33;1643343;85;21183;-74
2021/03/04 03:44:17;;;;;;;19.17;10.90;;;;;;;-3.36;80.76;100474.97;1663765;84;21405;-75
2021/03/04 03:46:45;;;;;;;16.80;10.95;;;;;;;-3.39;80.77;100472.42;1684881;84;21206;-75
2021/03/04 03:49:15;;;;;;;17.87;11.25;;;;;;;-3.41;80.76;100471.16;1692503;84;21904;-74
2021/03/04 03:51:43;;;;;;;25.55;14.60;;;;;;;-3.43;80.78;100454.86;1697778;84;21403;-74
2021/03/04 03:54:12;;;;;;;23.32;13.15;;;;;;;-3.44;80.82;100449.73;1654385;84;21025;-74
2021/03/04 03:56:40;;;;;;;18.07;12.07;;;;;;;-3.44;80.85;100448.00;1670030;84;21090;-74
2021/03/04 03:59:09;;;;;;;19.42;11.83;;;;;;;-3.42;80.93;100441.51;1695960;84;21148;-74
2021/03/04 04:01:37;;;;;;;22.00;12.90;;;;;;;-3.38;81.03;100439.26;1673601;84;23090;-74
2021/03/04 04:04:06;;;;;;;22.45;13.15;;;;;;;-3.34;81.11;100434.45;1677191;84;21180;-74
2021/03/04 04:06:35;;;;;;;18.57;12.03;;;;;;;-3.31;81.16;100433.93;1648715;84;21505;-74
2021/03/04 04:09:03;;;;;;;15.43;10.55;;;;;;;-3.28;81.19;100422.67;1669980;84;21094;-74
2021/03/04 04:11:31;;;;;;;17.05;10.53;;;;;;;-3.26;81.21;100415.77;1669223;84;21419;-71
2021/03/04 04:13:59;;;;;;;20.10;12.55;;;;;;;-3.24;81.24;100404.95;1675216;84;22110;-74
2021/03/04 04:16:27;;;;;;;20.27;13.03;;;;;;;-3.21;81.25;100395.83;1686886;84;21129;-74
2021/03/04 04:18:56;;;;;;;20.08;12.07;;;;;;;-3.18;81.27;100400.95;1684413;84;21206;-76
2021/03/04 04:21:24;;;;;;;22.32;13.08;;;;;;;-3.18;81.26;100392.77;1646774;85;21157;-77
2021/03/04 04:23:52;;;;;;;21.02;12.28;;;;;;;-3.19;81.28;100392.77;1672467;84;21528;-78
2021/03/04 04:26:20;;;;;;;19.40;11.43;;;;;;;-3.19;81.25;100387.60;1684070;84;22057;-78
2021/03/04 04:28:49;;;;;;;22.37;14.05;;;;;;;-3.20;81.25;100384.61;1721757;82;21172;-77
2021/03/04 04:31:16;;;;;;;18.67;11.33;;;;;;;-3.21;81.22;100384.21;1716064;82;21138;-77
2021/03/04 04:33:45;;;;;;;18.80;12.10;;;;;;;-3.24;81.16;100373.95;1716005;83;21180;-78
2021/03/04 04:36:13;;;;;;;20.77;13.05;;;;;;;-3.27;81.13;100376.63;1715303;83;20958;-78
2021/03/04 04:38:41;;;;;;;17.55;10.35;;;;;;;-3.30;81.08;100380.10;1711929;82;22066;-79
2021/03/04 04:41:09;;;;;;;24.98;14.58;;;;;;;-3.34;81.07;100374.61;1715361;82;21151;-78
2021/03/04 04:43:37;;;;;;;22.55;13.28;;;;;;;-3.36;81.04;100367.34;1713821;83;21157;-78
2021/03/04 04:46:06;;;;;;;22.10;13.00;;;;;;;-3.38;80.99;100363.92;1717431;82;21149;-78
2021/03/04 04:48:34;;;;;;;20.52;12.73;;;;;;;-3.36;81.04;100359.59;1677046;84;21090;-77
2021/03/04 04:51:05;;;;;;;23.57;14.78;;;;;;;-3.34;81.10;100352.66;1669621;85;22043;-79
2021/03/04 04:53:34;;;;;;;23.85;13.45;;;;;;;-3.26;81.23;100355.07;1715074;83;21538;-79
2021/03/04 04:56:07;;;;;;;24.87;14.85;;;;;;;-3.19;81.29;100353.58;1713204;82;21134;-77
2021/03/04 04:58:37;;;;;;;25.25;15.45;;;;;;;-3.11;81.34;100344.36;1701703;83;21251;-77
2021/03/04 05:01:05;;;;;;;21.40;13.13;;;;;;;-3.03;81.40;100339.02;1737551;82;21160;-78
2021/03/04 05:03:33;;;;;;;19.67;10.75;;;;;;;-2.95;81.47;100336.65;1709075;82;21972;-78
2021/03/04 05:06:00;;;;;;;24.35;14.50;;;;;;;-2.89;81.46;100336.51;1709076;82;21210;-78
2021/03/04 05:08:28;;;;;;;19.50;12.95;;;;;;;-2.81;81.49;100336.73;1722450;82;21577;-77
2021/03/04 05:10:56;;;;;;;19.62;12.03;;;;;;;-2.76;81.47;100338.78;1719507;82;21144;-76
2021/03/04 05:13:24;;;;;;;24.23;14.60;;;;;;;-2.71;81.44;100340.78;1717459;82;21205;-73
2021/03/04 05:15:51;;;;;;;17.57;11.55;;;;;;;-2.67;81.38;100333.38;1733541;82;22498;-75
2021/03/04 05:18:19;;;;;;;26.17;15.50;;;;;;;-2.66;81.32;100322.98;1727290;82;21572;-77
2021/03/04 05:20:47;;;;;;;21.05;13.30;;;;;;;-2.64;81.27;100328.11;1723057;82;21536;-77
2021/03/04 05:23:15;;;;;;;21.90;13.98;;;;;;;-2.65;81.22;100326.42;1717726;82;21279;-75
2021/03/04 05:25:42;;;;;;;22.37;13.83;;;;;;;-2.64;81.18;100322.94;1677411;83;21253;-76
2021/03/04 05:28:11;;;;;;;19.15;12.15;;;;;;;-2.65;81.12;100316.92;1715939;83;22085;-73
2021/03/04 05:30:38;;;;;;;27.17;15.18;;;;;;;-2.63;81.11;100313.00;1718293;82;21573;-75
2021/03/04 05:33:06;;;;;;;23.18;15.23;;;;;;;-2.62;81.06;100306.48;1716283;82;21010;-78
2021/03/04 05:35:36;;;;;;;20.32;12.95;;;;;;;-2.60;81.04;100306.48;1710383;82;21141;-79
2021/03/04 05:38:04;;;;;;;26.80;17.17;;;;;;;-2.57;81.02;100299.08;1708587;83;21085;-75
2021/03/04 05:40:32;;;;;;;23.55;14.60;;;;;;;-2.54;80.99;100285.61;1713551;82;23617;-76
2021/03/04 05:43:00;;;;;;;20.82;13.72;;;;;;;-2.51;80.96;100286.84;1718990;82;20990;-76
2021/03/04 05:45:28;;;;;;;23.45;14.38;;;;;;;-2.47;80.94;100281.97;1733853;82;21152;-75
2021/03/04 05:47:55;;;;;;;25.68;14.30;;;;;;;-2.45;80.94;100280.19;1717658;82;21588;-75
2021/03/04 05:50:26;;;;;;;28.90;16.93;;;;;;;-2.40;80.92;100278.78;1707524;83;21070;-74
2021/03/04 05:53:05;;;;;;;22.98;14.83;;;;;;;-2.35;80.90;100273.86;1717042;82;21964;-74
2021/03/04 05:55:32;;;;;;;23.10;14.65;;;;;;;-2.28;80.88;100268.52;1698412;82;21078;-74
2021/03/04 05:58:01;;;;;;;22.75;13.40;;;;;;;-2.23;80.85;100260.17;1704352;83;21082;-74
2021/03/04 06:00:29;;;;;;;28.92;16.23;;;;;;;-2.19;80.83;100256.17;1725693;82;21136;-76
2021/03/04 06:02:57;;;;;;;23.25;14.60;;;;;;;-2.14;80.80;100240.05;1715206;83;21121;-75
2021/03/04 06:05:25;;;;;;;26.52;16.73;;;;;;;-2.07;80.74;100245.45;1714488;82;22087;-75
2021/03/04 06:07:54;;;;;;;25.27;15.25;;;;;;;-2.03;80.76;100235.43;1709954;83;21152;-76
2021/03/04 06:10:24;;;;;;;25.88;15.58;;;;;;;-1.98;80.72;100230.10;1714404;82;21094;-74
2021/03/04 06:12:53;;;;;;;24.92;15.15;;;;;;;-1.90;80.72;100231.17;1714506;82;21082;-75
2021/03/04 06:15:22;;;;;;;31.05;17.37;;;;;;;-1.85;80.70;100222.80;1730414;82;21161;-74
2021/03/04 06:18:00;;;;;;;27.30;16.17;;;;;;;-1.80;80.66;100210.13;1714345;83;22075;-75
2021/03/04 06:20:40;;;;;;;31.52;19.48;;;;;;;-1.74;80.63;100209.94;1714491;83;21150;-74
2021/03/04 06:23:08;;;;;;;39.55;22.20;;;;;;;-1.63;80.61;100212.64;1715555;82;21150;-74
2021/03/04 06:25:36;;;;;;;31.93;17.55;;;;;;;-1.56;80.55;100209.77;1723034;82;21152;-73
2021/03/04 06:28:08;;;;;;;24.37;15.00;;;;;;;-1.48;80.50;100210.83;1722964;82;21085;-74
2021/03/04 06:30:39;;;;;;;25.92;16.07;;;;;;;-1.38;80.41;100206.19;1720015;83;22036;-74
2021/03/04 06:33:11;;;;;;;26.52;15.45;;;;;;;-1.31;80.32;100202.05;1720257;82;21148;-74
2021/03/04 06:35:42;;;;;;;26.02;15.03;;;;;;;-1.24;80.27;100197.52;1693555;83;21561;-74
2021/03/04 06:38:16;;;;;;;28.17;15.23;;;;;;;-1.16;80.23;100197.66;1675813;84;21132;-74
2021/03/04 06:40:44;;;;;;;30.27;19.55;;;;;;;-1.05;80.20;100193.86;1668703;85;21682;-74
2021/03/04 06:43:23;;;;;;;33.80;19.40;;;;;;;-0.93;80.18;100188.23;1676640;85;22475;-74
2021/03/04 06:45:53;;;;;;;29.20;16.55;;;;;;;-0.81;80.17;100183.91;1676643;85;21264;-74
2021/03/04 06:48:21;;;;;;;25.62;15.10;;;;;;;-0.66;80.08;100172.98;1675199;85;21513;-74
2021/03/04 06:50:52;;;;;;;28.90;16.02;;;;;;;-0.51;79.81;100173.31;1677302;85;21188;-74
2021/03/04 06:53:21;;;;;;;24.20;15.10;;;;;;;-0.38;79.71;100162.89;1676506;85;21212;-73
2021/03/04 06:56:05;;;;;;;27.37;16.75;;;;;;;-0.23;79.59;100165.33;1684117;84;23066;-73
2021/03/04 06:58:38;;;;;;;27.95;17.27;;;;;;;-0.12;79.30;100165.30;1684219;84;21101;-73
2021/03/04 07:01:15;;;;;;;24.65;15.72;;;;;;;0.02;79.12;100161.34;1677402;85;21149;-73
2021/03/04 07:03:52;;;;;;;25.12;15.53;;;;;;;0.13;78.91;100152.67;1677315;84;21168;-72
2021/03/04 07:06:24;;;;;;;28.45;17.67;;;;;;;0.24;78.71;100149.18;1674122;84;21089;-73
2021/03/04 07:08:54;;;;;;;22.48;14.55;;;;;;;0.35;78.43;100147.44;1677450;85;22091;-73
2021/03/04 07:11:24;;;;;;;22.50;14.18;;;;;;;0.44;78.12;100145.31;1678084;84;21112;-73
2021/03/04 07:13:53;;;;;;;25.30;14.47;;;;;;;0.52;77.82;100143.70;1674644;84;21103;-73
2021/03/04 07:16:31;;;;;;;20.92;13.55;;;;;;;0.62;77.63;100145.45;1680211;84;21159;-80
2021/03/04 07:19:01;;;;;;;41.30;22.98;;;;;;;0.73;77.33;100144.55;1695541;84;21181;-73
2021/03/04 07:21:44;;;;;;;36.68;21.02;;;;;;;0.83;77.11;100136.28;1677390;85;21405;-72
2021/03/04 07:24:13;;;;;;;27.42;16.25;;;;;;;0.92;76.80;100132.44;1676101;85;21639;-77
2021/03/04 07:26:41;;;;;;;28.02;16.57;;;;;;;1.03;76.35;100127.61;1654573;84;21129;-76
2021/03/04 07:29:11;;;;;;;31.07;18.35;;;;;;;1.12;76.05;100130.26;1667444;85;21242;-79
2021/03/04 07:31:42;;;;;;;27.37;16.05;;;;;;;1.21;75.84;100129.85;1699898;84;21095;-76
2021/03/04 07:34:16;;;;;;;25.48;16.02;;;;;;;1.30;75.50;100132.04;1683003;84;22131;-84
2021/03/04 07:36:50;;;;;;;20.97;13.15;;;;;;;1.40;75.22;100127.27;1696588;84;21174;-79
2021/03/04 07:39:29;;;;;;;26.87;14.90;;;;;;;1.51;75.01;100121.10;1702373;84;21362;-76
2021/03/04 07:41:57;;;;;;;24.32;15.70;;;;;;;1.63;74.63;100120.98;1702221;84;21112;-76
2021/03/04 07:44:30;;;;;;;26.65;15.50;;;;;;;1.72;74.36;100113.59;1700220;84;21185;-76
2021/03/04 07:47:08;;;;;;;24.77;15.98;;;;;;;1.85;74.13;100111.73;1694658;84;21897;-72
2021/03/04 07:49:43;;;;;;;33.95;19.15;;;;;;;1.96;73.67;100102.94;1680321;85;21517;-79
2021/03/04 07:52:23;;;;;;;30.60;17.25;;;;;;;2.09;73.26;100096.20;1679383;84;21674;-79
2021/03/04 07:54:54;;;;;;;31.05;18.65;;;;;;;2.21;73.12;100092.14;1668461;84;21543;-75
2021/03/04 07:57:28;;;;;;;30.12;18.20;;;;;;;2.35;72.57;100092.78;1675538;85;21088;-77
2021/03/04 07:59:59;;;;;;;27.07;16.85;;;;;;;2.46;72.28;100098.30;1693269;84;22082;-79
2021/03/04 08:02:34;;;;;;;24.92;15.60;;;;;;;2.57;71.80;100092.07;1679256;84;21568;-81
2021/03/04 08:05:18;;;;;;;25.95;15.85;;;;;;;2.69;71.48;100084.91;1675930;84;21077;-89
2021/03/04 08:07:50;;;;;;;31.62;18.52;;;;;;;2.81;71.22;100079.09;1699130;84;21452;-80
2021/03/04 08:10:21;;;;;;;25.88;15.25;;;;;;;2.96;70.80;100066.15;1679178;84;22523;-80
2021/03/04 08:12:57;;;;;;;24.95;15.38;;;;;;;3.06;70.34;100062.12;1674117;84;40029;-72
2021/03/04 08:15:40;;;;;;;29.75;16.27;;;;;;;3.17;70.02;100058.47;1681643;84;21097;-75
2021/03/04 08:18:21;;;;;;;30.00;17.00;;;;;;;3.29;69.55;100053.92;1680906;84;21173;-83
2021/03/04 08:20:51;;;;;;;31.02;17.55;;;;;;;3.38;68.90;100049.50;1667386;85;21104;-83
2021/03/04 08:23:20;;;;;;;28.00;16.65;;;;;;;3.45;68.81;100046.91;1701289;84;21136;-89
2021/03/04 08:25:48;;;;;;;28.27;16.32;;;;;;;3.51;68.50;100040.98;1669856;84;22134;-85
2021/03/04 08:28:29;;;;;;;30.82;18.75;;;;;;;3.56;68.27;100040.25;1712853;82;21148;-82
2021/03/04 08:31:05;;;;;;;32.15;17.92;;;;;;;3.64;68.02;100038.05;1722777;82;21113;-80
2021/03/04 08:33:34;;;;;;;27.98;17.07;;;;;;;3.70;67.54;100029.42;1727454;82;21069;-82
2021/03/04 08:36:04;;;;;;;29.10;18.45;;;;;;;3.77;67.44;100033.84;1705031;82;21061;-84
2021/03/04 08:38:40;;;;;;;30.08;17.60;;;;;;;3.86;67.19;100033.32;1708418;83;21905;-85
2021/03/04 08:41:08;;;;;;;28.42;15.68;;;;;;;3.94;67.10;100022.41;1701310;83;21133;-86
2021/03/04 08:43:36;;;;;;;31.87;18.52;;;;;;;4.04;66.64;100024.86;1719258;82;21608;-84
2021/03/04 08:46:06;;;;;;;27.70;16.52;;;;;;;4.12;66.24;100017.42;1711763;82;21091;-85
2021/03/04 08:48:36;;;;;;;30.43;17.82;;;;;;;4.19;65.55;100027.06;1707000;83;21107;-81
2021/03/04 08:51:06;;;;;;;28.60;18.12;;;;;;;4.21;65.31;100006.89;1718981;83;21918;-83
2021/03/04 08:53:34;;;;;;;27.17;16.07;;;;;;;4.25;65.07;100012.34;1719255;82;21125;-83
2021/03/04 08:56:05;;;;;;;29.77;17.45;;;;;;;4.31;64.96;100012.80;1718590;83;21065;-80
2021/03/04 08:58:40;;;;;;;28.98;17.12;;;;;;;4.39;64.64;100003.66;1716008;83;21149;-81
2021/03/04 09:01:07;;;;;;;26.82;16.67;;;;;;;4.46;64.67;99996.67;1667638;82;21142;-83
2021/03/04 09:03:42;;;;;;;27.62;16.48;;;;;;;4.53;64.50;99994.03;1710850;83;22166;-84
2021/03/04 09:06:17;;;;;;;28.38;16.75;;;;;;;4.63;64.22;99989.09;1714754;82;21129;-78
2021/03/04 09:08:47;;;;;;;26.68;16.48;;;;;;;4.69;63.97;99986.58;1714920;83;21178;-78
2021/03/04 09:11:30;;;;;;;25.27;15.43;;;;;;;4.75;63.49;99979.67;1718063;82;21177;-81
2021/03/04 09:14:06;;;;;;;23.40;14.35;;;;;;;4.79;63.52;99982.45;1727904;81;21584;-76
2021/03/04 09:16:46;;;;;;;27.32;15.68;;;;;;;4.87;63.17;99961.90;1724954;82;21898;-79
2021/03/04 09:19:39;;;;;;;25.50;15.00;;;;;;;4.96;62.86;99962.63;1721003;82;21135;-75
2021/03/04 09:22:10;;;;;;;26.27;15.80;;;;;;;5.03;62.52;99961.31;1696758;82;21177;-79
2021/03/04 09:24:38;;;;;;;27.27;17.05;;;;;;;5.10;62.17;99955.20;1706318;84;21128;-81
2021/03/04 09:27:10;;;;;;;22.50;13.13;;;;;;;5.19;62.02;99955.93;1715311;82;21158;-79
2021/03/04 09:29:41;;;;;;;22.93;14.47;;;;;;;5.28;61.81;99949.27;1724998;82;22320;-78
2021/03/04 09:32:09;;;;;;;25.48;15.03;;;;;;;5.36;61.80;99941.77;1716583;83;21137;-74
2021/03/04 09:34:42;;;;;;;24.12;13.65;;;;;;;5.43;61.17;99946.51;1720337;83;21163;-76
2021/03/04 09:37:17;;;;;;;24.27;14.87;;;;;;;5.50;61.08;99946.09;1721587;83;21580;-78
2021/03/04 09:39:47;;;;;;;25.37;15.13;;;;;;;5.55;60.62;99930.92;1721196;82;21081;-80
2021/03/04 09:42:18;;;;;;;22.27;13.68;;;;;;;5.59;60.63;99924.06;1720926;82;22072;-77
2021/03/04 09:44:54;;;;;;;21.90;13.32;;;;;;;5.66;60.50;99918.80;1722119;82;21244;-76
2021/03/04 09:47:29;;;;;;;24.25;14.15;;;;;;;5.74;60.20;99914.36;1730552;82;21130;-83
2021/03/04 09:50:02;;;;;;;25.57;14.30;;;;;;;5.85;60.15;99909.70;1715301;82;21198;-75
2021/03/04 09:52:32;;;;;;;25.35;15.55;;;;;;;5.95;59.88;99909.48;1719172;83;21220;-78
2021/03/04 09:55:11;;;;;;;20.95;13.28;;;;;;;6.05;59.47;99898.74;1718227;82;22038;-76
2021/03/04 09:57:41;;;;;;;25.80;14.00;;;;;;;6.13;59.30;99900.84;1687979;84;21144;-78
2021/03/04 10:00:21;;;;;;;25.45;14.50;;;;;;;6.19;58.64;99893.87;1723309;82;21245;-79
2021/03/04 10:02:50;;;;;;;30.23;17.07;;;;;;;6.17;58.41;99888.72;1725365;82;21143;-80
2021/03/04 10:05:21;;;;;;;26.10;14.98;;;;;;;6.17;58.19;99880.02;1724396;82;21438;-78
2021/03/04 10:07:50;;;;;;;23.40;14.15;;;;;;;6.21;58.70;99869.22;1715130;82;22065;-77
2021/03/04 10:10:21;;;;;;;23.80;15.10;;;;;;;6.37;58.39;99862.89;1711719;83;21220;-78
2021/03/04 10:12:57;;;;;;;25.55;14.93;;;;;;;6.52;58.24;99861.34;1721589;82;21140;-82
2021/03/04 10:15:38;;;;;;;22.93;14.43;;;;;;;6.63;57.79;99861.06;1675946;82;21477;-79
2021/03/04 10:18:09;;;;;;;24.30;14.55;;;;;;;6.66;57.51;99852.52;1720221;83;21157;-80
2021/03/04 10:20:40;;;;;;;22.40;14.15;;;;;;;6.65;57.32;99845.56;1723571;82;22071;-83
2021/03/04 10:23:09;;;;;;;22.22;14.85;;;;;;;6.60;57.19;99837.19;1723844;82;21157;-78
2021/03/04 10:25:39;;;;;;;22.62;14.95;;;;;;;6.58;57.27;99840.41;1721853;82;21140;-81
2021/03/04 10:28:07;;;;;;;22.22;13.18;;;;;;;6.60;57.50;99835.88;1705441;82;21193;-81
2021/03/04 10:30:37;;;;;;;25.08;14.90;;;;;;;6.67;57.27;99828.42;1723523;82;21915;-83
2021/03/04 10:33:06;;;;;;;23.18;14.30;;;;;;;6.75;57.19;99829.52;1721554;82;22058;-77
2021/03/04 10:35:37;;;;;;;26.42;16.60;;;;;;;6.85;57.04;99821.81;1720581;82;21220;-78
2021/03/04 10:38:05;;;;;;;24.75;15.53;;;;;;;6.91;56.76;99817.44;1721202;82;21169;-77
2021/03/04 10:40:33;;;;;;;23.42;14.80;;;;;;;6.96;56.61;99814.02;1720966;82;21366;-81
2021/03/04 10:43:01;;;;;;;21.93;14.50;;;;;;;7.07;56.69;99814.53;1725049;82;21065;-83
2021/03/04 10:45:31;;;;;;;23.85;14.18;;;;;;;7.17;56.28;99809.80;1655171;85;22075;-85
2021/03/04 10:47:59;;;;;;;19.98;13.32;;;;;;;7.29;56.37;99805.42;1724097;82;21137;-80
2021/03/04 10:50:40;;;;;;;23.62;14.35;;;;;;;7.41;55.80;99804.48;1713400;82;21149;-79
2021/03/04 10:53:15;;;;;;;23.07;14.55;;;;;;;7.50;55.56;99793.77;1718008;82;21152;-84
2021/03/04 10:55:46;;;;;;;22.50;14.13;;;;;;;7.64;55.58;99795.36;1716838;83;21108;-84
2021/03/04 10:58:18;;;;;;;20.68;14.33;;;;;;;7.69;54.93;99791.88;1706613;83;22070;-83
2021/03/04 11:00:46;;;;;;;22.30;13.28;;;;;;;7.71;54.60;99793.43;1720312;82;21170;-79
2021/03/04 11:03:14;;;;;;;20.37;13.22;;;;;;;7.65;54.08;99783.41;1722762;82;21453;-83
2021/03/04 11:05:42;;;;;;;22.50;14.45;;;;;;;7.59;54.22;99783.03;1715267;82;21508;-85
2021/03/04 11:08:12;;;;;;;25.57;14.95;;;;;;;7.51;54.48;99771.78;1724855;82;21113;-80
2021/03/04 11:10:39;;;;;;;23.40;14.40;;;;;;;7.43;54.74;99781.59;1665474;85;21911;-80
2021/03/04 11:13:07;;;;;;;30.00;20.43;;;;;;;7.39;54.91;99766.16;1698820;84;21181;-86
2021/03/04 11:15:35;;;;;;;28.92;18.27;;;;;;;7.42;55.02;99760.66;1677436;85;21212;-79
2021/03/04 11:18:03;;;;;;;31.17;19.87;;;;;;;7.51;54.86;99764.37;1721486;83;21062;-80
2021/03/04 11:20:31;;;;;;;34.40;23.22;;;;;;;7.58;54.76;99759.02;1736183;82;21069;-76
2021/03/04 11:22:59;;;;;;;22.98;16.00;;;;;;;7.62;54.67;99755.19;1719766;83;22645;-80
2021/03/04 11:25:27;;;;;;;24.82;15.95;;;;;;;7.65;54.49;99748.41;1722890;82;21589;-80
2021/03/04 11:27:55;;;;;;;22.32;15.48;;;;;;;7.70;54.32;99740.98;1716196;82;21098;-83
2021/03/04 11:30:23;;;;;;;22.02;12.78;;;;;;;7.78;54.44;99733.82;1727150;82;21142;-81